Weather History for Idabel, OK

Change the Weather History Date:

Thursday, October 24, 2013

  Actual Average (KDEQ) Record (KDEQ)
Temperature  
Mean Temperature 60 °F 61 °F  
Max Temperature 77 °F 74 °F 85 °F (1975)
Min Temperature 44 °F 48 °F 25 °F (1938)
Degree Days  
Heating Degree Days 4 6  
Month to date heating degree days 79  
Since 1 July heating degree days 88  
Cooling Degree Days 0 2  
Month to date cooling degree days 62  
Year to date cooling degree days 1927  
Growing Degree Days 10 (Base 50)    
Moisture  
Dew Point 45 °F    
Average Humidity 66    
Maximum Humidity 100    
Minimum Humidity 31    
Precipitation  
Precipitation 0.00 in 0.14 in 2.05 in (1954)
Month to date precipitation 3.59  
Year to date precipitation 38.79  
Snow  
Snow 0.00 in - - ()
Month to date snowfall  
Since 1 July snowfall  
Since 1 September snowfall  
Snow Depth -    
Sea Level Pressure  
Sea Level Pressure 30.19 in    
Wind  
Wind Speed 4 mph (NNE)    
Max Wind Speed 12 mph    
Max Gust Speed 16 mph    
Visibility 9 miles    
Events      
T = Trace of Precipitation, MM = Missing Value Source: NWS Daily Summary

Daily Weather History Graph

Daily Weather History Graph

Search for Another Location

Airport:

Trip Planner

Search our weather history database for the weather conditions in past years. The results will help you decide how hot, cold, wet, or windy it might be!

Date:

Astronomy

Oct. 24, 2013 Rise Set
Actual Time 7:32 AM CDT 6:34 PM CDT
Civil Twilight 7:06 AM CDT 7:00 PM CDT
Nautical Twilight 6:37 AM CDT 7:29 PM CDT
Astronomical Twilight 6:08 AM CDT 7:58 PM CDT
Moon 11:05 PM CDT (10/24) 12:27 PM CDT (10/24)
Length of Visible Light 11h 53m
Length of Day
11h 02m
Waning Gibbous, 71% of the Moon is Illuminated
Oct 24
Waning Gibbous
Oct 26
Last Quarter
Nov 3
New
Nov 9
First Quarter
Nov 17
Full

Hourly Weather History & Observations

Time (CDT) Temp. Windchill Dew Point Humidity Pressure Visibility Wind Dir Wind Speed Gust Speed Precip Events Conditions
12:15 AM 51.8 °F - 46.4 °F 82% 30.05 in 10.0 mi Calm Calm - N/A   Clear
12:35 AM 50.0 °F - 46.4 °F 87% 30.05 in 10.0 mi Calm Calm - N/A   Clear
12:55 AM 50.0 °F - 46.4 °F 87% 30.05 in 10.0 mi ENE 3.5 mph - N/A   Clear
1:15 AM 50.0 °F - 48.2 °F 94% 30.05 in 10.0 mi ENE 4.6 mph - N/A   Clear
1:35 AM 50.0 °F - 46.4 °F 87% 30.06 in 10.0 mi NE 3.5 mph - N/A   Clear
1:55 AM 50.0 °F - 46.4 °F 87% 30.06 in 10.0 mi NE 3.5 mph - N/A   Clear
2:15 AM 50.0 °F - 46.4 °F 87% 30.06 in 10.0 mi East 5.8 mph - N/A   Clear
2:35 AM 50.0 °F - 46.4 °F 87% 30.07 in 10.0 mi NE 5.8 mph - N/A   Clear
2:55 AM 50.0 °F - 46.4 °F 87% 30.07 in 10.0 mi NE 4.6 mph - N/A   Clear
3:15 AM 50.0 °F - 46.4 °F 87% 30.07 in 10.0 mi East 3.5 mph - N/A   Clear
3:35 AM 50.0 °F - 46.4 °F 87% 30.07 in 10.0 mi Calm Calm - N/A   Clear
3:55 AM 50.0 °F - 46.4 °F 87% 30.07 in 10.0 mi Calm Calm - N/A   Clear
4:15 AM 50.0 °F - 46.4 °F 87% 30.08 in 10.0 mi Calm Calm - N/A   Clear
4:35 AM 48.2 °F - 46.4 °F 93% 30.09 in 10.0 mi North 4.6 mph - N/A   Clear
4:55 AM 46.4 °F - 44.6 °F 93% 30.09 in 10.0 mi Calm Calm - N/A   Clear
5:15 AM 46.4 °F - 44.6 °F 93% 30.09 in 10.0 mi Calm Calm - N/A   Clear
5:35 AM 46.4 °F 45.2 °F 44.6 °F 93% 30.09 in 10.0 mi SE 3.5 mph - N/A   Clear
5:55 AM 46.4 °F - 44.6 °F 93% 30.09 in 10.0 mi Calm Calm - N/A   Clear
6:15 AM 46.4 °F - 44.6 °F 93% 30.10 in 10.0 mi Calm Calm - N/A   Clear
6:35 AM 44.6 °F 42.2 °F 44.6 °F 100% 30.11 in 7.0 mi North 4.6 mph - N/A   Clear
6:55 AM 44.6 °F 41.4 °F 42.8 °F 93% 30.12 in 7.0 mi NNE 5.8 mph - N/A   Clear
7:15 AM 44.6 °F 43.1 °F 44.6 °F 100% 30.12 in 7.0 mi NE 3.5 mph - N/A   Clear
7:35 AM 44.6 °F - 44.6 °F 100% 30.13 in 5.0 mi Calm Calm - N/A   Clear
7:55 AM 46.4 °F - 44.6 °F 93% 30.14 in 7.0 mi Calm Calm - N/A   Clear
8:15 AM 46.4 °F - 46.4 °F 100% 30.15 in 7.0 mi Calm Calm - N/A   Clear
8:35 AM 50.0 °F - 48.2 °F 94% 30.17 in 7.0 mi Calm Calm - N/A   Clear
8:55 AM 53.6 °F - 51.8 °F 94% 30.17 in 10.0 mi Calm Calm - N/A   Clear
9:15 AM 55.4 °F - 53.6 °F 94% 30.18 in 10.0 mi NE 3.5 mph - N/A   Clear
9:35 AM 57.2 °F - 51.8 °F 82% 30.19 in 10.0 mi NE 3.5 mph - N/A   Clear
9:55 AM 59.0 °F - 51.8 °F 77% 30.20 in 10.0 mi NE 3.5 mph - N/A   Clear
10:15 AM 62.6 °F - 51.8 °F 68% 30.20 in 10.0 mi NE 4.6 mph - N/A   Clear
10:35 AM 64.4 °F - 51.8 °F 64% 30.20 in 10.0 mi North 3.5 mph - N/A   Clear
10:55 AM 68.0 °F - 51.8 °F 56% 30.22 in 10.0 mi North 3.5 mph - N/A   Clear
11:15 AM 68.0 °F - 51.8 °F 56% 30.23 in 10.0 mi NNE 6.9 mph - N/A   Clear
11:35 AM 68.0 °F - 51.8 °F 56% 30.24 in 10.0 mi North 5.8 mph - N/A   Clear
11:55 AM 68.0 °F - 51.8 °F 56% 30.23 in 10.0 mi Calm Calm - N/A   Clear
12:15 PM 71.6 °F - 51.8 °F 50% 30.23 in 10.0 mi Calm Calm - N/A   Clear
12:35 PM 71.6 °F - 48.2 °F 43% 30.23 in 10.0 mi NNW 6.9 mph - N/A   Clear
12:55 PM 73.4 °F - 46.4 °F 38% 30.23 in 10.0 mi NNW 6.9 mph - N/A   Clear
1:15 PM 73.4 °F - 46.4 °F 38% 30.23 in 10.0 mi NNW 6.9 mph - N/A   Clear
1:35 PM 75.2 °F - 44.6 °F 34% 30.22 in 10.0 mi NE 8.1 mph - N/A   Clear
1:55 PM 73.4 °F - 44.6 °F 36% 30.21 in 10.0 mi North 3.5 mph - N/A   Clear
2:15 PM 75.2 °F - 42.8 °F 31% 30.21 in 10.0 mi North 6.9 mph - N/A   Clear
2:35 PM 75.2 °F - 42.8 °F 31% 30.21 in 10.0 mi NE 9.2 mph - N/A   Clear
2:55 PM 77.0 °F - 44.6 °F 32% 30.20 in 7.0 mi NE 5.8 mph - N/A   Clear
3:15 PM 77.0 °F - 44.6 °F 32% 30.20 in 10.0 mi North 5.8 mph - N/A   Clear
3:35 PM 75.2 °F - 44.6 °F 34% 30.20 in 7.0 mi North 9.2 mph - N/A   Clear
3:55 PM 73.4 °F - 42.8 °F 33% 30.21 in 10.0 mi North 9.2 mph 16.1 mph N/A   Clear
3:58 PM 75.2 °F - 44.6 °F 34% 30.21 in 10.0 mi North 11.5 mph 16.1 mph N/A   Clear
4:15 PM 73.4 °F - 42.8 °F 33% 30.20 in 7.0 mi North 11.5 mph - N/A   Clear
4:35 PM 73.4 °F - 41.0 °F 31% 30.21 in 7.0 mi North 9.2 mph - N/A   Clear
4:55 PM 71.6 °F - 42.8 °F 35% 30.21 in 10.0 mi North 8.1 mph - N/A   Clear
5:15 PM 71.6 °F - 41.0 °F 33% 30.22 in 7.0 mi North 8.1 mph - N/A   Clear
5:35 PM 69.8 °F - 42.8 °F 38% 30.22 in 10.0 mi North 10.4 mph - N/A   Clear
5:55 PM 68.0 °F - 42.8 °F 40% 30.23 in 10.0 mi North 6.9 mph - N/A   Clear
6:15 PM 66.2 °F - 42.8 °F 43% 30.23 in 10.0 mi North 5.8 mph - N/A   Clear
6:35 PM 64.4 °F - 42.8 °F 45% 30.24 in 10.0 mi North 5.8 mph - N/A   Clear
6:55 PM 60.8 °F - 42.8 °F 52% 30.24 in 10.0 mi North 6.9 mph - N/A   Clear
7:15 PM 59.0 °F - 44.6 °F 59% 30.25 in 10.0 mi North 6.9 mph - N/A   Clear
7:35 PM 59.0 °F - 44.6 °F 59% 30.26 in 10.0 mi NNE 8.1 mph - N/A   Clear
7:55 PM 57.2 °F - 44.6 °F 63% 30.27 in 10.0 mi North 9.2 mph - N/A   Clear
8:15 PM 57.2 °F - 42.8 °F 59% 30.27 in 10.0 mi North 8.1 mph - N/A   Clear
8:35 PM 55.4 °F - 42.8 °F 63% 30.27 in 10.0 mi North 10.4 mph - N/A   Clear
8:55 PM 55.4 °F - 41.0 °F 58% 30.27 in 10.0 mi North 9.2 mph - N/A   Clear
9:15 PM 53.6 °F - 41.0 °F 62% 30.28 in 10.0 mi NNE 5.8 mph - N/A   Clear
9:35 PM 51.8 °F - 41.0 °F 67% 30.29 in 10.0 mi NE 3.5 mph - N/A   Clear
9:55 PM 51.8 °F - 41.0 °F 67% 30.30 in 10.0 mi ENE 3.5 mph - N/A   Clear
10:15 PM 51.8 °F - 41.0 °F 67% 30.31 in 2.5 mi ENE 4.6 mph - N/A   Clear
10:35 PM 51.8 °F - 41.0 °F 67% 30.32 in 2.5 mi ENE 5.8 mph - N/A   Clear
10:55 PM 51.8 °F - 41.0 °F 67% 30.32 in 3.0 mi ENE 6.9 mph - N/A   Clear
11:15 PM 51.8 °F - 41.0 °F 67% 30.32 in 3.0 mi ENE 8.1 mph - N/A   Clear
11:35 PM 51.8 °F - 41.0 °F 67% 30.32 in 7.0 mi ENE 8.1 mph - N/A   Clear
11:55 PM 50.0 °F - 41.0 °F 71% 30.32 in 10.0 mi ENE 6.9 mph - N/A   Clear